Time;durP1;ratioP1;P1;durP2;ratioP2;P2;SDS_P1;SDS_P2;PMS_P1;PMS_P2;Temp;Humidity;BMP_temperature;BMP_pressure;BME280_temperature;BME280_humidity;BME280_pressure;Samples;Min_cycle;Max_cycle;Signal;HPM_P1;HPM_P2
2022/11/27 00:00:41;;;;;;;34.42;10.20;;;6.30;99.90;;;;;;5109050;28;20055;-72
2022/11/27 00:03:07;;;;;;;34.78;9.68;;;6.00;99.90;;;;;;5092122;28;20047;-72
2022/11/27 00:05:32;;;;;;;38.08;10.15;;;5.90;99.90;;;;;;5092992;28;20044;-72
2022/11/27 00:07:58;;;;;;;38.25;9.95;;;5.90;99.90;;;;;;5092428;28;20044;-73
2022/11/27 00:10:24;;;;;;;38.05;11.00;;;6.00;99.90;;;;;;5093079;28;20048;-73
2022/11/27 00:12:49;;;;;;;33.00;9.70;;;6.30;99.90;;;;;;5092767;28;20040;-72
2022/11/27 00:15:15;;;;;;;33.47;10.13;;;5.80;99.90;;;;;;5091884;28;20059;-72
2022/11/27 00:17:41;;;;;;;32.35;9.13;;;5.80;99.90;;;;;;5091734;28;20051;-74
2022/11/27 00:20:07;;;;;;;40.67;9.20;;;6.20;99.90;;;;;;5092851;28;20048;-72
2022/11/27 00:22:33;;;;;;;24.67;8.93;;;6.20;99.90;;;;;;5091636;28;20064;-72
2022/11/27 00:24:58;;;;;;;31.08;9.52;;;6.00;99.90;;;;;;5091695;28;20040;-74
2022/11/27 00:27:25;;;;;;;35.42;10.48;;;5.80;99.90;;;;;;5074810;28;20048;-72
2022/11/27 00:29:50;;;;;;;;;;;6.10;99.90;;;;;;5093182;28;20106;-72
2022/11/27 00:32:16;;;;;;;29.77;9.90;;;6.30;99.90;;;;;;5092369;28;19920;-72
2022/11/27 00:34:41;;;;;;;31.10;9.90;;;6.20;99.90;;;;;;5091318;28;20052;-71
2022/11/27 00:37:07;;;;;;;37.92;9.02;;;5.80;99.90;;;;;;5091258;28;20051;-71
2022/11/27 00:39:33;;;;;;;29.92;9.02;;;6.10;99.90;;;;;;5092351;28;20078;-72
2022/11/27 00:41:58;;;;;;;31.13;9.40;;;6.00;99.90;;;;;;5092642;28;20388;-73
2022/11/27 00:44:24;;;;;;;31.30;9.35;;;7.90;99.90;;;;;;5092124;28;20048;-74
2022/11/27 00:46:50;;;;;;;32.42;8.85;;;6.00;99.90;;;;;;5092606;28;20134;-72
2022/11/27 00:49:16;;;;;;;34.60;9.13;;;6.20;99.90;;;;;;5090923;28;20072;-71
2022/11/27 00:51:42;;;;;;;30.98;9.23;;;5.90;99.90;;;;;;5092350;28;20035;-72
2022/11/27 00:54:08;;;;;;;33.75;8.65;;;5.80;99.90;;;;;;5092273;28;20476;-71
2022/11/27 00:56:36;;;;;;;38.70;9.88;;;5.60;99.90;;;;;;5092177;28;20052;-74
2022/11/27 00:59:04;;;;;;;30.58;9.85;;;6.20;99.90;;;;;;5092306;28;20470;-72
2022/11/27 01:01:34;;;;;;;37.38;10.10;;;;;;;;;;5092051;28;20079;-72
2022/11/27 01:04:02;;;;;;;34.42;9.15;;;5.90;99.90;;;;;;5092193;28;20044;-73
2022/11/27 01:06:28;;;;;;;32.67;9.35;;;5.70;99.90;;;;;;5092027;28;20492;-73
2022/11/27 01:08:54;;;;;;;28.02;9.32;;;6.00;99.90;;;;;;5092157;28;20567;-74
2022/11/27 01:11:24;;;;;;;33.03;10.23;;;5.70;99.90;;;;;;5092013;28;20134;-72
2022/11/27 01:13:51;;;;;;;31.52;8.55;;;5.50;99.90;;;;;;5090635;28;20048;-73
2022/11/27 01:16:22;;;;;;;33.03;9.57;;;6.00;99.90;;;;;;5091814;28;20433;-74
2022/11/27 01:18:49;;;;;;;26.80;8.73;;;6.00;99.90;;;;;;5091904;28;20055;-72
2022/11/27 01:21:17;;;;;;;27.30;9.27;;;5.70;99.90;;;;;;5091799;28;20134;-73
2022/11/27 01:23:43;;;;;;;27.55;8.98;;;5.60;99.90;;;;;;5091633;28;20036;-72
2022/11/27 01:26:10;;;;;;;35.70;9.23;;;6.00;99.90;;;;;;5090964;28;20048;-72
2022/11/27 01:28:38;;;;;;;31.00;9.60;;;5.70;99.90;;;;;;5091983;28;20108;-72
2022/11/27 01:31:11;;;;;;;32.03;9.32;;;5.70;99.90;;;;;;5091644;28;20040;-72
2022/11/27 01:33:37;;;;;;;32.55;9.50;;;5.50;99.90;;;;;;5073798;28;20040;-73
2022/11/27 01:36:05;;;;;;;35.67;9.02;;;5.60;99.90;;;;;;5090586;28;20056;-72
2022/11/27 01:38:32;;;;;;;30.80;9.07;;;5.30;99.90;;;;;;5091832;28;20067;-72
2022/11/27 01:41:00;;;;;;;26.70;9.18;;;5.50;99.90;;;;;;5091814;28;20069;-72
2022/11/27 01:43:49;;;;;;;32.13;8.52;;;5.80;99.90;;;;;;5092934;28;20047;-72
2022/11/27 01:46:30;;;;;;;26.70;9.50;;;5.50;99.90;;;;;;5084345;28;20522;-72
2022/11/27 01:49:29;;;;;;;32.63;9.10;;;5.70;99.90;;;;;;5091562;28;20484;-73
2022/11/27 01:52:01;;;;;;;30.40;9.70;;;5.20;99.90;;;;;;5085719;28;20051;-72
2022/11/27 01:55:07;;;;;;;31.85;9.23;;;5.80;99.90;;;;;;5091770;28;20052;-73
2022/11/27 01:57:38;;;;;;;29.58;9.25;;;5.50;99.90;;;;;;5060623;28;20067;-72
2022/11/27 02:00:06;;;;;;;26.05;9.13;;;5.50;99.90;;;;;;5091089;28;20503;-72
2022/11/27 02:02:32;;;;;;;29.35;10.35;;;5.50;99.90;;;;;;5091620;28;20079;-74
2022/11/27 02:04:58;;;;;;;27.55;9.57;;;5.40;99.90;;;;;;5107484;28;20492;-73
2022/11/27 02:07:24;;;;;;;29.67;9.95;;;5.50;99.90;;;;;;5090469;28;20044;-73
2022/11/27 02:09:49;;;;;;;27.75;8.95;;;5.70;99.90;;;;;;5091574;28;20090;-72
2022/11/27 02:12:33;;;;;;;24.92;9.15;;;5.30;99.90;;;;;;5090396;28;20071;-72
2022/11/27 02:15:22;;;;;;;27.08;8.80;;;5.20;99.90;;;;;;5091292;28;20467;-72
2022/11/27 02:17:56;;;;;;;30.25;9.82;;;5.50;99.90;;;;;;5059364;28;20055;-72
2022/11/27 02:20:44;;;;;;;23.20;8.68;;;5.40;99.90;;;;;;5091404;28;20457;-72
2022/11/27 02:23:35;;;;;;;25.63;8.88;;;5.40;99.90;;;;;;5091065;28;20055;-72
2022/11/27 02:26:24;;;;;;;33.05;10.52;;;5.60;99.90;;;;;;5091371;28;20097;-73
2022/11/27 02:29:03;;;;;;;26.75;9.30;;;5.90;99.90;;;;;;5091209;28;20446;-72
2022/11/27 02:31:57;;;;;;;28.63;9.18;;;5.60;99.90;;;;;;5093916;28;20476;-73
2022/11/27 02:34:53;;;;;;;24.40;9.60;;;5.70;99.90;;;;;;5095022;28;20051;-72
2022/11/27 02:37:40;;;;;;;23.50;8.63;;;5.70;99.90;;;;;;5094760;28;20052;-72
2022/11/27 02:40:11;;;;;;;24.98;8.38;;;5.90;99.90;;;;;;5094962;28;20059;-72
2022/11/27 02:42:44;;;;;;;23.85;8.45;;;5.60;99.90;;;;;;5094913;28;20044;-72
2022/11/27 02:45:17;;;;;;;22.17;8.63;;;7.00;99.90;;;;;;5093599;28;20136;-73
2022/11/27 02:47:45;;;;;;;32.70;9.15;;;5.80;99.90;;;;;;5095023;28;20120;-72
2022/11/27 02:50:18;;;;;;;34.28;9.07;;;5.80;99.90;;;;;;5094755;28;20098;-72
2022/11/27 02:52:46;;;;;;;25.67;8.57;;;5.90;99.90;;;;;;5093577;28;20052;-71
2022/11/27 02:55:15;;;;;;;19.65;8.05;;;5.80;99.90;;;;;;5094650;28;20101;-71
2022/11/27 02:57:44;;;;;;;24.05;8.23;;;5.90;99.90;;;;;;5094323;28;20043;-73
2022/11/27 03:00:11;;;;;;;21.05;7.20;;;6.00;99.90;;;;;;5094812;28;20044;-72
2022/11/27 03:02:45;;;;;;;20.83;8.35;;;5.80;99.90;;;;;;5094654;28;20131;-72
2022/11/27 03:05:17;;;;;;;24.30;8.00;;;6.10;99.90;;;;;;5094327;28;20048;-73
2022/11/27 03:08:00;;;;;;;20.42;7.63;;;5.70;99.90;;;;;;5094423;28;20472;-72
2022/11/27 03:10:38;;;;;;;26.92;8.20;;;6.00;99.90;;;;;;5094377;28;20097;-73
2022/11/27 03:13:04;;;;;;;21.40;7.97;;;6.00;99.90;;;;;;5094014;28;20392;-71
2022/11/27 03:15:42;;;;;;;19.83;7.82;;;5.80;99.90;;;;;;5094560;28;20048;-72
2022/11/27 03:18:20;;;;;;;18.90;7.57;;;6.10;99.90;;;;;;5094253;28;20070;-72
2022/11/27 03:20:48;;;;;;;25.83;8.43;;;6.00;99.90;;;;;;5094824;28;20052;-71
2022/11/27 03:23:14;;;;;;;22.17;8.23;;;5.70;99.90;;;;;;5095177;28;20115;-72
2022/11/27 03:25:39;;;;;;;24.65;8.73;;;5.90;99.90;;;;;;5093726;28;20542;-71
2022/11/27 03:28:09;;;;;;;21.98;8.27;;;6.00;99.90;;;;;;5093711;28;20051;-71
2022/11/27 03:30:35;;;;;;;25.55;9.40;;;6.10;99.90;;;;;;5093002;28;20052;-71
2022/11/27 03:33:01;;;;;;;20.98;8.13;;;6.20;99.90;;;;;;5093902;28;20468;-72
2022/11/27 03:35:28;;;;;;;26.15;9.05;;;5.90;99.90;;;;;;5075900;28;20086;-71
2022/11/27 03:37:55;;;;;;;28.60;9.38;;;6.10;99.90;;;;;;5093605;28;20055;-72
2022/11/27 03:40:30;;;;;;;21.08;8.73;;;6.00;99.90;;;;;;5093633;28;20468;-72
2022/11/27 03:43:15;;;;;;;23.67;8.93;;;7.00;99.90;;;;;;5092389;28;20089;-72
2022/11/27 03:46:08;;;;;;;20.58;8.20;;;6.10;99.90;;;;;;5092579;28;20055;-72
2022/11/27 03:48:52;;;;;;;20.38;9.05;;;6.30;99.90;;;;;;5092574;28;20056;-72
2022/11/27 03:51:50;;;;;;;22.23;8.90;;;6.40;99.90;;;;;;5093557;28;20113;-72
2022/11/27 03:54:27;;;;;;;23.02;8.55;;;6.20;99.90;;;;;;5079540;28;20797;-71
2022/11/27 03:57:05;;;;;;;27.05;9.45;;;6.00;99.90;;;;;;5093253;28;20083;-72
2022/11/27 03:59:36;;;;;;;27.17;9.38;;;6.10;99.90;;;;;;5093365;28;20063;-71
2022/11/27 04:02:01;;;;;;;24.60;9.05;;;6.00;99.90;;;;;;5093309;28;20132;-72
2022/11/27 04:04:27;;;;;;;23.80;8.90;;;6.20;99.90;;;;;;5093226;28;20084;-72
2022/11/27 04:06:53;;;;;;;26.95;9.23;;;6.20;99.90;;;;;;5075176;28;20052;-71
2022/11/27 04:09:19;;;;;;;24.15;9.52;;;6.10;99.90;;;;;;5093121;28;20044;-72
2022/11/27 04:11:44;;;;;;;28.13;9.23;;;6.20;99.90;;;;;;5074822;28;20102;-76
2022/11/27 04:14:10;;;;;;;23.55;9.10;;;6.00;99.90;;;;;;5091379;28;20087;-73
2022/11/27 04:16:36;;;;;;;26.95;8.85;;;6.20;99.90;;;;;;5091734;28;20043;-72
2022/11/27 04:19:01;;;;;;;22.17;8.80;;;5.70;99.90;;;;;;5091927;28;20048;-74
2022/11/27 04:21:27;;;;;;;20.33;8.77;;;6.00;99.90;;;;;;5091632;28;20500;-71
2022/11/27 04:23:52;;;;;;;25.27;9.43;;;6.20;99.90;;;;;;5091837;28;20048;-72
2022/11/27 04:26:18;;;;;;;20.42;8.77;;;6.00;99.90;;;;;;5092580;28;20346;-73
2022/11/27 04:28:44;;;;;;;24.17;8.93;;;6.60;99.90;;;;;;5092461;28;20040;-71
2022/11/27 04:31:09;;;;;;;24.58;8.38;;;5.90;99.90;;;;;;5091549;28;20136;-72
2022/11/27 04:33:35;;;;;;;20.85;8.20;;;6.10;99.90;;;;;;5092723;28;20071;-71
2022/11/27 04:36:01;;;;;;;21.98;9.10;;;5.80;99.90;;;;;;5092674;28;20048;-72
2022/11/27 04:38:26;;;;;;;24.98;8.82;;;6.10;99.90;;;;;;5092509;28;20134;-74
2022/11/27 04:40:52;;;;;;;15.60;8.02;;;6.00;99.90;;;;;;5092327;28;20048;-72
2022/11/27 04:43:18;;;;;;;20.80;8.63;;;6.10;99.90;;;;;;5092499;28;20044;-72
2022/11/27 04:45:44;;;;;;;20.90;8.13;;;6.10;99.90;;;;;;5092465;28;20040;-72
2022/11/27 04:48:10;;;;;;;20.23;7.90;;;6.20;99.90;;;;;;5091501;28;20055;-71
2022/11/27 04:50:36;;;;;;;19.02;7.25;;;5.90;99.90;;;;;;5091413;28;20104;-70
2022/11/27 04:53:01;;;;;;;20.65;7.57;;;6.10;99.90;;;;;;5092194;28;20043;-72
2022/11/27 04:55:27;;;;;;;21.23;7.70;;;6.10;99.90;;;;;;5091561;28;20130;-72
2022/11/27 04:57:53;;;;;;;22.05;7.57;;;6.20;99.90;;;;;;5092954;28;20079;-72
2022/11/27 05:00:19;;;;;;;20.40;7.93;;;6.10;99.90;;;;;;5091838;28;20434;-72
2022/11/27 05:02:45;;;;;;;;;;;6.00;99.90;;;;;;5092289;28;20052;-72
2022/11/27 05:05:10;;;;;;;17.02;6.35;;;6.10;99.90;;;;;;5092296;28;19977;-71
2022/11/27 05:07:36;;;;;;;24.17;7.45;;;6.30;99.90;;;;;;5092232;28;20127;-71
2022/11/27 05:10:03;;;;;;;23.13;7.63;;;6.00;99.90;;;;;;5107764;28;20131;-73
2022/11/27 05:12:29;;;;;;;19.98;7.22;;;6.20;99.90;;;;;;5108081;28;20055;-72
2022/11/27 05:14:55;;;;;;;17.38;7.13;;;6.50;99.90;;;;;;5092385;28;20044;-72
2022/11/27 05:17:20;;;;;;;15.35;6.75;;;6.20;99.90;;;;;;5091013;28;20405;-71
2022/11/27 05:19:46;;;;;;;17.25;6.18;;;5.90;99.90;;;;;;5091088;28;20048;-71
2022/11/27 05:22:12;;;;;;;15.20;6.32;;;6.20;99.90;;;;;;5092071;28;20063;-71
2022/11/27 05:24:37;;;;;;;20.13;6.63;;;6.10;99.90;;;;;;5091776;28;20040;-71
2022/11/27 05:27:03;;;;;;;17.52;6.63;;;6.00;99.90;;;;;;5092024;28;20087;-71
2022/11/27 05:29:29;;;;;;;16.98;6.22;;;6.10;99.90;;;;;;5091941;28;20056;-72
2022/11/27 05:31:55;;;;;;;15.23;5.60;;;6.30;99.90;;;;;;5091963;28;20513;-71
2022/11/27 05:34:20;;;;;;;21.00;6.93;;;6.50;99.90;;;;;;5090552;28;20439;-71
2022/11/27 05:36:46;;;;;;;12.73;6.05;;;6.10;99.90;;;;;;5091676;28;20082;-70
2022/11/27 05:39:12;;;;;;;19.63;5.82;;;6.10;99.90;;;;;;5090118;28;20063;-71
2022/11/27 05:41:40;;;;;;;16.08;6.65;;;6.30;99.90;;;;;;5091816;28;20052;-72
2022/11/27 05:44:06;;;;;;;17.92;5.80;;;6.00;99.90;;;;;;5091788;28;20067;-71
2022/11/27 05:46:32;;;;;;;9.95;4.95;;;6.30;99.90;;;;;;5091784;28;20047;-71
2022/11/27 05:48:57;;;;;;;17.95;5.97;;;6.20;99.90;;;;;;5091678;28;20044;-72
2022/11/27 05:51:23;;;;;;;14.75;5.00;;;6.30;99.90;;;;;;5091761;28;20052;-71
2022/11/27 05:53:49;;;;;;;11.25;5.50;;;6.10;99.90;;;;;;5091478;28;20063;-71
2022/11/27 05:56:17;;;;;;;22.35;5.88;;;6.20;99.90;;;;;;5090647;28;20040;-72
2022/11/27 05:58:45;;;;;;;16.00;5.65;;;6.50;99.90;;;;;;5091609;28;20051;-72
2022/11/27 06:01:13;;;;;;;15.60;6.28;;;6.40;99.90;;;;;;5090724;28;20109;-71
2022/11/27 06:03:39;;;;;;;15.60;5.68;;;6.40;99.90;;;;;;5091626;28;20377;-71
2022/11/27 06:06:18;;;;;;;14.38;5.65;;;6.30;99.90;;;;;;5093877;28;20055;-78
2022/11/27 06:08:46;;;;;;;16.33;6.78;;;6.30;99.90;;;;;;5095530;28;20047;-71
2022/11/27 06:11:18;;;;;;;14.80;5.53;;;7.80;99.90;;;;;;5095490;28;20051;-71
2022/11/27 06:13:45;;;;;;;19.95;5.72;;;6.40;99.90;;;;;;5090652;28;20757;-72
2022/11/27 06:16:17;;;;;;;15.57;5.93;;;6.10;99.90;;;;;;5093837;28;20051;-73
2022/11/27 06:18:43;;;;;;;18.98;6.80;;;6.00;99.90;;;;;;5094897;28;20090;-72
2022/11/27 06:21:12;;;;;;;14.38;5.78;;;6.20;99.90;;;;;;5093614;28;20519;-80
2022/11/27 06:23:37;;;;;;;12.40;4.75;;;6.20;99.90;;;;;;5094613;28;20123;-71
2022/11/27 06:26:10;;;;;;;11.32;4.97;;;6.00;99.90;;;;;;5094605;28;20189;-70
2022/11/27 06:28:36;;;;;;;12.65;5.10;;;5.90;99.90;;;;;;5094324;28;20150;-74
2022/11/27 06:31:07;;;;;;;15.02;5.43;;;6.10;99.90;;;;;;5094472;28;20484;-73
2022/11/27 06:33:33;;;;;;;13.60;5.00;;;6.30;99.90;;;;;;5094569;28;20125;-73
2022/11/27 06:35:58;;;;;;;17.17;5.40;;;6.20;99.90;;;;;;5113636;28;20051;-71
2022/11/27 06:38:24;;;;;;;18.13;5.80;;;6.70;99.90;;;;;;5115583;28;20104;-70
2022/11/27 06:40:50;;;;;;;15.57;5.50;;;6.10;99.90;;;;;;5099505;28;20056;-70
2022/11/27 06:43:15;;;;;;;11.40;4.97;;;5.90;99.90;;;;;;5094814;28;20043;-72
2022/11/27 06:45:41;;;;;;;17.63;5.22;;;6.20;99.90;;;;;;5110620;28;20075;-71
2022/11/27 06:48:06;;;;;;;13.02;4.90;;;6.40;99.90;;;;;;5100486;28;20105;-71
2022/11/27 06:50:32;;;;;;;12.23;5.32;;;6.00;99.90;;;;;;5094011;28;20075;-71
2022/11/27 06:52:58;;;;;;;18.58;5.00;;;6.20;99.90;;;;;;5093651;28;20086;-70
2022/11/27 06:55:23;;;;;;;14.75;5.43;;;6.30;99.90;;;;;;5089869;28;20054;-73
2022/11/27 06:57:50;;;;;;;10.15;5.07;;;7.30;99.90;;;;;;5114375;28;20487;-71
2022/11/27 07:00:17;;;;;;;15.68;5.55;;;6.20;99.90;;;;;;5113527;28;20131;-71
2022/11/27 07:02:42;;;;;;;12.02;4.72;;;6.50;99.90;;;;;;5104431;28;20055;-71
2022/11/27 07:05:08;;;;;;;17.67;5.47;;;6.90;99.90;;;;;;5092647;28;20055;-73
2022/11/27 07:07:34;;;;;;;12.32;5.05;;;6.00;99.90;;;;;;5091342;28;20063;-73
2022/11/27 07:09:59;;;;;;;10.93;4.97;;;6.10;99.90;;;;;;5092023;28;20090;-71
2022/11/27 07:12:25;;;;;;;13.02;5.10;;;6.00;99.90;;;;;;5090897;28;20081;-71
2022/11/27 07:14:51;;;;;;;16.30;5.38;;;6.70;99.90;;;;;;5092479;28;20055;-73
2022/11/27 07:17:16;;;;;;;11.63;5.40;;;6.10;99.90;;;;;;5093484;28;20040;-72
2022/11/27 07:19:42;;;;;;;15.00;5.53;;;6.20;99.90;;;;;;5092712;28;20465;-71
2022/11/27 07:22:08;;;;;;;13.82;5.22;;;5.90;99.90;;;;;;5094049;28;20044;-71
2022/11/27 07:24:34;;;;;;;12.40;5.05;;;6.50;99.90;;;;;;5093992;28;20040;-72
2022/11/27 07:27:00;;;;;;;11.80;4.70;;;6.20;99.90;;;;;;5094026;28;20052;-71
2022/11/27 07:29:25;;;;;;;13.35;5.13;;;6.60;99.90;;;;;;5093681;28;20097;-71
2022/11/27 07:31:51;;;;;;;14.35;5.18;;;6.20;99.90;;;;;;5092948;28;20047;-71
2022/11/27 07:34:17;;;;;;;18.15;5.53;;;6.40;99.90;;;;;;5093590;28;20043;-71
2022/11/27 07:36:42;;;;;;;16.08;5.53;;;6.20;99.90;;;;;;5092623;28;20482;-71
2022/11/27 07:39:08;;;;;;;18.60;5.68;;;6.40;99.90;;;;;;5092274;28;20393;-70
2022/11/27 07:41:34;;;;;;;13.52;5.40;;;6.20;99.90;;;;;;5093716;28;20406;-73
2022/11/27 07:43:59;;;;;;;22.05;6.60;;;6.00;99.90;;;;;;5093609;28;20138;-72
2022/11/27 07:46:25;;;;;;;17.02;6.05;;;7.40;99.90;;;;;;5093663;28;20476;-71
2022/11/27 07:48:51;;;;;;;11.80;5.32;;;6.30;99.90;;;;;;5093357;28;20052;-71
2022/11/27 07:51:19;;;;;;;;;;;6.00;99.90;;;;;;5093974;28;20054;-71
2022/11/27 07:53:45;;;;;;;15.27;5.80;;;6.30;99.90;;;;;;5093391;28;19993;-71
2022/11/27 07:56:14;;;;;;;17.40;5.55;;;6.30;99.90;;;;;;5093232;28;20499;-71
2022/11/27 07:58:39;;;;;;;17.77;5.50;;;6.30;99.90;;;;;;5091913;28;20493;-71
2022/11/27 08:01:07;;;;;;;16.70;5.35;;;6.50;99.90;;;;;;5091984;28;20101;-71
2022/11/27 08:03:33;;;;;;;13.55;5.10;;;6.50;99.90;;;;;;5093245;28;20086;-71
2022/11/27 08:05:58;;;;;;;10.82;5.50;;;6.20;99.90;;;;;;5093268;28;20075;-71
2022/11/27 08:08:24;;;;;;;17.63;5.18;;;6.10;99.90;;;;;;5091879;28;20392;-72
2022/11/27 08:10:50;;;;;;;20.20;5.60;;;6.30;99.90;;;;;;5075294;28;20044;-70
2022/11/27 08:13:15;;;;;;;10.80;5.55;;;6.20;99.90;;;;;;5091547;28;20040;-71
2022/11/27 08:15:41;;;;;;;16.70;5.72;;;6.40;99.90;;;;;;5092826;28;20044;-71
2022/11/27 08:18:07;;;;;;;15.05;6.28;;;6.20;99.90;;;;;;5093810;28;20088;-71
2022/11/27 08:20:33;;;;;;;14.07;5.80;;;6.50;99.90;;;;;;5092349;28;20044;-70
2022/11/27 08:22:59;;;;;;;14.95;5.82;;;6.30;99.90;;;;;;5092675;28;20124;-71
2022/11/27 08:25:25;;;;;;;13.00;5.20;;;6.30;99.90;;;;;;5091357;28;20488;-71
2022/11/27 08:27:50;;;;;;;18.77;5.30;;;6.50;99.90;;;;;;5091713;28;20361;-71
2022/11/27 08:30:16;;;;;;;19.50;6.03;;;6.50;99.90;;;;;;5092434;28;20040;-71
2022/11/27 08:32:43;;;;;;;17.65;6.00;;;6.50;99.90;;;;;;5090796;28;20048;-72
2022/11/27 08:35:09;;;;;;;13.88;6.18;;;7.70;99.90;;;;;;5092414;28;20052;-72
2022/11/27 08:37:36;;;;;;;14.07;5.68;;;6.50;99.90;;;;;;5074122;28;20059;-73
2022/11/27 08:40:02;;;;;;;16.52;6.80;;;6.30;99.90;;;;;;5092425;28;20105;-73
2022/11/27 08:42:28;;;;;;;12.27;6.43;;;6.40;99.90;;;;;;5090983;28;20048;-73
2022/11/27 08:44:54;;;;;;;11.82;5.82;;;6.20;99.90;;;;;;5091217;28;20056;-73
2022/11/27 08:47:19;;;;;;;14.38;6.05;;;6.30;99.90;;;;;;5092103;28;20046;-73
2022/11/27 08:49:45;;;;;;;15.77;6.05;;;7.30;99.90;;;;;;5092213;28;20050;-75
2022/11/27 08:52:11;;;;;;;17.08;6.05;;;6.20;99.90;;;;;;5092462;28;20102;-74
2022/11/27 08:54:36;;;;;;;14.45;6.03;;;6.70;99.90;;;;;;5090610;28;20036;-74
2022/11/27 08:57:02;;;;;;;18.90;5.95;;;5.50;99.90;;;;;;5090440;28;20108;-74
2022/11/27 08:59:28;;;;;;;12.05;5.97;;;6.50;99.90;;;;;;5074220;28;20139;-74
2022/11/27 09:01:54;;;;;;;18.85;6.47;;;6.40;99.90;;;;;;5091820;28;20513;-74
2022/11/27 09:04:20;;;;;;;13.80;5.97;;;6.50;99.90;;;;;;5090950;28;20056;-76
2022/11/27 09:06:47;;;;;;;18.52;7.03;;;6.20;99.90;;;;;;5091940;28;20474;-75
2022/11/27 09:09:13;;;;;;;20.50;6.97;;;6.20;99.90;;;;;;5090840;28;20434;-74
2022/11/27 09:11:40;;;;;;;19.08;6.18;;;6.50;99.90;;;;;;5091930;28;20101;-74
2022/11/27 09:14:07;;;;;;;15.88;6.75;;;6.60;99.90;;;;;;5091821;28;20098;-76
2022/11/27 09:16:34;;;;;;;15.70;6.20;;;6.10;99.90;;;;;;5091551;28;20048;-75
2022/11/27 09:19:00;;;;;;;18.10;6.03;;;6.20;99.90;;;;;;5073905;28;20477;-75
2022/11/27 09:21:27;;;;;;;17.42;7.07;;;6.50;99.90;;;;;;5090715;28;20084;-76
2022/11/27 09:23:58;;;;;;;17.48;6.45;;;6.10;99.90;;;;;;5091376;28;20499;-75
2022/11/27 09:26:25;;;;;;;14.30;6.28;;;6.20;99.90;;;;;;5091793;28;20128;-75
2022/11/27 09:28:52;;;;;;;17.70;6.70;;;7.60;99.90;;;;;;5089393;28;20059;-76
2022/11/27 09:31:19;;;;;;;19.42;7.43;;;6.10;99.90;;;;;;5090808;28;20407;-76
2022/11/27 09:33:45;;;;;;;12.25;6.50;;;6.30;99.90;;;;;;5091713;28;20040;-75
2022/11/27 09:36:18;;;;;;;14.90;7.15;;;6.20;99.90;;;;;;5091890;28;20048;-75
2022/11/27 09:38:44;;;;;;;19.02;7.53;;;6.50;99.90;;;;;;5091791;28;20063;-75
2022/11/27 09:41:13;;;;;;;14.82;7.25;;;6.20;99.90;;;;;;5094393;28;20055;-75
2022/11/27 09:43:56;;;;;;;17.55;7.68;;;6.10;99.90;;;;;;5094632;28;20104;-75
2022/11/27 09:46:33;;;;;;;17.20;7.15;;;6.00;99.90;;;;;;5094866;28;20051;-75
2022/11/27 09:49:02;;;;;;;;;;;6.60;99.90;;;;;;5096403;28;20044;-74
2022/11/27 09:51:36;;;;;;;17.98;7.53;;;6.10;99.90;;;;;;5094824;28;19919;-74
2022/11/27 09:54:39;;;;;;;19.60;8.05;;;6.30;99.90;;;;;;5094511;28;20084;-75
2022/11/27 09:57:12;;;;;;;20.50;8.77;;;6.20;99.90;;;;;;5093905;28;20813;-75
2022/11/27 09:59:44;;;;;;;18.95;7.75;;;6.30;99.90;;;;;;5094539;28;20374;-74
2022/11/27 10:02:18;;;;;;;19.27;7.70;;;6.20;99.90;;;;;;5094787;28;20484;-76
2022/11/27 10:04:44;;;;;;;19.08;9.00;;;6.50;99.90;;;;;;5095650;28;20399;-76
2022/11/27 10:07:18;;;;;;;22.88;8.25;;;6.20;99.90;;;;;;5095323;28;20067;-76
2022/11/27 10:10:14;;;;;;;16.90;7.90;;;6.20;99.90;;;;;;5092588;28;20048;-77
2022/11/27 10:12:58;;;;;;;15.93;7.72;;;6.10;99.90;;;;;;5092514;28;20054;-76
2022/11/27 10:15:57;;;;;;;23.27;9.00;;;5.90;99.90;;;;;;5077088;28;20136;-76
2022/11/27 10:18:39;;;;;;;20.27;9.13;;;6.10;99.90;;;;;;5077066;28;20086;-76
2022/11/27 10:21:26;;;;;;;18.98;8.77;;;6.20;99.90;;;;;;5095099;28;20048;-76
2022/11/27 10:24:12;;;;;;;18.73;7.88;;;6.60;99.90;;;;;;5093853;28;20087;-76
2022/11/27 10:26:44;;;;;;;19.23;8.10;;;6.30;99.90;;;;;;5095023;28;20116;-77
2022/11/27 10:29:13;;;;;;;19.95;8.65;;;6.30;99.90;;;;;;5094678;28;20446;-76
2022/11/27 10:31:50;;;;;;;26.33;9.48;;;6.30;99.90;;;;;;5093175;28;20148;-76
2022/11/27 10:34:30;;;;;;;16.63;8.25;;;6.10;99.90;;;;;;5092516;28;20048;-76
2022/11/27 10:36:58;;;;;;;22.92;9.13;;;6.30;99.90;;;;;;5094951;28;20079;-75
2022/11/27 10:39:40;;;;;;;21.02;9.25;;;6.60;99.90;;;;;;5093667;28;20056;-75
2022/11/27 10:42:16;;;;;;;21.17;9.77;;;6.60;99.90;;;;;;5095010;28;20050;-76
2022/11/27 10:45:05;;;;;;;17.73;9.40;;;6.50;99.90;;;;;;5093846;28;20056;-75
2022/11/27 10:47:32;;;;;;;18.00;8.98;;;6.60;99.90;;;;;;5093963;28;20064;-76
2022/11/27 10:49:58;;;;;;;28.10;9.68;;;6.20;99.90;;;;;;5094844;28;20130;-77
2022/11/27 10:52:24;;;;;;;18.58;9.60;;;6.60;99.90;;;;;;5076064;28;20054;-78
2022/11/27 10:54:56;;;;;;;28.48;10.20;;;6.10;99.90;;;;;;5093311;28;20057;-77
2022/11/27 10:57:50;;;;;;;24.00;9.27;;;6.30;99.90;;;;;;5094505;28;20073;-77
2022/11/27 11:00:22;;;;;;;20.05;8.50;;;6.20;99.90;;;;;;5093520;28;20051;-77
2022/11/27 11:02:47;;;;;;;20.55;9.30;;;6.30;99.90;;;;;;5094543;28;20044;-76
2022/11/27 11:05:23;;;;;;;21.20;9.98;;;6.30;99.90;;;;;;5059934;28;20075;-76
2022/11/27 11:08:14;;;;;;;17.40;9.55;;;6.60;99.90;;;;;;5094408;28;20446;-76
2022/11/27 11:10:48;;;;;;;24.92;9.32;;;6.30;99.90;;;;;;5093135;28;20057;-75
2022/11/27 11:13:31;;;;;;;26.08;12.10;;;7.40;99.90;;;;;;5093121;28;20080;-77
2022/11/27 11:16:11;;;;;;;20.35;9.50;;;6.50;99.90;;;;;;5076322;28;20071;-76
2022/11/27 11:18:51;;;;;;;27.90;10.15;;;6.30;99.90;;;;;;5094205;28;20055;-76
2022/11/27 11:21:37;;;;;;;52.85;26.50;;;6.30;99.90;;;;;;5094192;28;20044;-76
2022/11/27 11:24:11;;;;;;;23.87;11.13;;;6.70;99.90;;;;;;5094115;28;20044;-77
2022/11/27 11:26:58;;;;;;;28.42;14.50;;;6.60;99.90;;;;;;5092804;28;20286;-77
2022/11/27 11:29:39;;;;;;;24.38;10.77;;;6.60;99.90;;;;;;5094021;28;20055;-76
2022/11/27 11:32:19;;;;;;;26.27;10.60;;;6.60;99.90;;;;;;5093960;28;20043;-77
2022/11/27 11:35:02;;;;;;;27.65;10.07;;;6.60;99.90;;;;;;5092829;28;20044;-76
2022/11/27 11:37:31;;;;;;;27.02;10.25;;;6.70;99.90;;;;;;5092737;28;20059;-77
2022/11/27 11:40:12;;;;;;;20.27;9.88;;;8.10;99.90;;;;;;5093783;28;20132;-76
2022/11/27 11:42:49;;;;;;;24.52;9.88;;;6.80;99.90;;;;;;5092505;28;20044;-74
2022/11/27 11:45:18;;;;;;;24.00;11.27;;;6.80;99.90;;;;;;5092314;28;20500;-77
2022/11/27 11:47:52;;;;;;;22.95;10.30;;;6.60;99.90;;;;;;5075599;28;20105;-77
2022/11/27 11:50:33;;;;;;;25.23;10.90;;;6.70;99.90;;;;;;5092540;28;20388;-77
2022/11/27 11:53:14;;;;;;;19.60;10.05;;;6.80;99.90;;;;;;5075379;28;20070;-77
2022/11/27 11:56:30;;;;;;;21.25;9.88;;;6.60;99.90;;;;;;5091978;28;20091;-74
2022/11/27 11:59:01;;;;;;;26.08;10.05;;;6.50;99.90;;;;;;5010886;28;20054;-76
2022/11/27 12:01:27;;;;;;;19.67;9.75;;;6.80;99.90;;;;;;5074507;28;20060;-76
2022/11/27 12:04:30;;;;;;;25.38;10.93;;;6.70;99.90;;;;;;5091198;28;20060;-75
2022/11/27 12:07:17;;;;;;;25.67;10.13;;;7.10;99.90;;;;;;5091776;28;20052;-75
2022/11/27 12:09:43;;;;;;;22.95;10.15;;;6.90;99.90;;;;;;5091808;28;20052;-76
2022/11/27 12:12:20;;;;;;;23.77;10.45;;;6.40;99.90;;;;;;5091709;28;20109;-76
2022/11/27 12:14:54;;;;;;;19.88;9.25;;;7.00;99.90;;;;;;5093130;28;20040;-76
2022/11/27 12:17:34;;;;;;;20.02;9.65;;;6.80;99.90;;;;;;5093199;28;20055;-76
2022/11/27 12:20:20;;;;;;;25.30;10.43;;;6.90;99.90;;;;;;5092037;28;20425;-76
2022/11/27 12:23:22;;;;;;;21.83;10.10;;;6.90;99.90;;;;;;5093022;28;20097;-76
2022/11/27 12:25:54;;;;;;;21.23;9.55;;;6.70;99.90;;;;;;5092954;28;20048;-76
2022/11/27 12:28:23;;;;;;;22.98;9.40;;;6.90;99.90;;;;;;5091867;28;20044;-76
2022/11/27 12:30:54;;;;;;;19.83;8.93;;;6.80;99.90;;;;;;5092867;28;20044;-76
2022/11/27 12:33:25;;;;;;;24.90;9.80;;;7.10;99.90;;;;;;5091668;28;20396;-75
2022/11/27 12:35:56;;;;;;;21.40;9.48;;;7.40;99.90;;;;;;5093094;28;20059;-77
2022/11/27 12:38:55;;;;;;;16.38;8.70;;;6.90;99.90;;;;;;5091432;28;20056;-75
2022/11/27 12:41:39;;;;;;;23.52;9.38;;;7.20;99.90;;;;;;5092725;28;20059;-75
2022/11/27 12:44:34;;;;;;;22.75;9.70;;;7.20;99.90;;;;;;5091263;28;20558;-75
2022/11/27 12:47:12;;;;;;;16.50;9.35;;;7.30;99.90;;;;;;5091445;28;20055;-74
2022/11/27 12:49:48;;;;;;;22.75;9.10;;;7.40;99.90;;;;;;5074571;28;20066;-75
2022/11/27 12:52:26;;;;;;;20.50;9.63;;;7.80;99.90;;;;;;5091186;28;20087;-75
2022/11/27 12:55:11;;;;;;;23.85;9.77;;;7.00;99.90;;;;;;5092554;28;20507;-75
2022/11/27 12:57:48;;;;;;;28.70;11.38;;;7.00;99.90;;;;;;5092144;28;20514;-74
2022/11/27 13:00:18;;;;;;;24.50;11.00;;;6.80;99.90;;;;;;5092326;28;20097;-75
2022/11/27 13:03:02;;;;;;;20.23;10.00;;;6.90;99.90;;;;;;5090997;28;20146;-74
2022/11/27 13:05:50;;;;;;;18.98;8.63;;;6.80;99.90;;;;;;5092275;28;20048;-75
2022/11/27 13:08:24;;;;;;;20.58;9.77;;;7.30;99.90;;;;;;5091955;28;20109;-74